Time;durP1;ratioP1;P1;durP2;ratioP2;P2;SDS_P1;SDS_P2;PMS_P1;PMS_P2;Temp;Humidity;BMP_temperature;BMP_pressure;BME280_temperature;BME280_humidity;BME280_pressure;Samples;Min_cycle;Max_cycle;Signal;HPM_P1;HPM_P2
2023/09/06 00:02:04;;;;;;;1.98;1.88;;;;;;;;;;4819197;29;20285;-82
2023/09/06 00:04:32;;;;;;;2.10;2.00;;;;;;;;;;4875115;29;20289;-82
2023/09/06 00:06:59;;;;;;;2.67;2.47;;;;;;;;;;4877516;29;20709;-83
2023/09/06 00:09:27;;;;;;;2.72;2.53;;;;;;;;;;4877465;29;20229;-83
2023/09/06 00:11:54;;;;;;;2.67;2.47;;;;;;;;;;4876330;29;20208;-83
2023/09/06 00:14:23;;;;;;;3.73;2.57;;;;;;;;;;4877659;29;20690;-83
2023/09/06 00:16:50;;;;;;;3.33;3.08;;;;;;;;;;4877493;29;20223;-83
2023/09/06 00:19:19;;;;;;;2.53;2.30;;;;;;;;;;4877778;29;20739;-82
2023/09/06 00:21:48;;;;;;;2.03;1.77;;;;;;;;;;4877259;29;20643;-83
2023/09/06 00:24:16;;;;;;;2.22;2.13;;;;;;;;;;4877216;29;20589;-82
2023/09/06 00:26:49;;;;;;;2.00;1.85;;;;;;;;;;4876813;29;20208;-82
2023/09/06 00:29:16;;;;;;;3.90;1.92;;;;;;;;;;4877458;29;20214;-82
2023/09/06 00:31:46;;;;;;;2.08;1.98;;;;;;;;;;4877079;29;20291;-81
2023/09/06 00:34:15;;;;;;;2.38;2.28;;;;;;;;;;4876634;29;20210;-82
2023/09/06 00:36:47;;;;;;;2.33;2.20;;;;;;;;;;4876789;29;20322;-82
2023/09/06 00:42:51;;;;;;;3.47;1.80;;;;;;;;;;4856264;29;20224;-82
2023/09/06 00:45:26;;;;;;;2.30;2.20;;;;;;;;;;4850230;29;20220;-82
2023/09/06 00:47:55;;;;;;;2.43;2.20;;;;;;;;;;4858134;29;20649;-82
2023/09/06 00:50:22;;;;;;;2.58;2.45;;;;;;;;;;4859047;29;20212;-82
2023/09/06 00:52:52;;;;;;;2.90;2.70;;;;;;;;;;4857956;29;20606;-83
2023/09/06 00:55:20;;;;;;;3.42;2.22;;;;;;;;;;4857084;29;20350;-81
2023/09/06 00:57:47;;;;;;;2.03;1.95;;;;;;;;;;4858106;29;20212;-81
2023/09/06 01:00:17;;;;;;;2.30;2.20;;;;;;;;;;4858116;29;20239;-82
2023/09/06 01:02:44;;;;;;;1.80;1.80;;;;;;;;;;4858220;29;20204;-81
2023/09/06 01:05:12;;;;;;;2.40;1.80;;;;;;;;;;4858466;29;20292;-84
2023/09/06 01:07:40;;;;;;;6.43;2.25;;;;;;;;;;4857891;29;20304;-82
2023/09/06 01:10:09;;;;;;;7.53;2.47;;;;;;;;;;4869125;29;20756;-82
2023/09/06 01:12:37;;;;;;;2.85;2.25;;;;;;;;;;4894719;29;20662;-84
2023/09/06 01:15:05;;;;;;;2.30;2.20;;;;;;;;;;4894211;29;20706;-83
2023/09/06 01:17:35;;;;;;;2.85;2.08;;;;;;;;;;4895026;29;20297;-81
2023/09/06 01:20:08;;;;;;;2.65;2.45;;;;;;;;;;4895119;29;20686;-82
2023/09/06 01:22:40;;;;;;;4.38;2.30;;;;;;;;;;4893649;29;20675;-81
2023/09/06 01:25:09;;;;;;;2.17;2.08;;;;;;;;;;4894235;29;20217;-83
2023/09/06 01:27:36;;;;;;;2.75;2.65;;;;;;;;;;4894783;29;20215;-82
2023/09/06 01:30:03;;;;;;;2.33;2.20;;;;;;;;;;4894501;29;20748;-81
2023/09/06 01:32:30;;;;;;;2.67;2.50;;;;;;;;;;4894639;29;20235;-82
2023/09/06 01:34:58;;;;;;;2.08;1.98;;;;;;;;;;4894046;29;20218;-82
2023/09/06 01:37:26;;;;;;;4.45;2.50;;;;;;;;;;4893969;29;20242;-82
2023/09/06 01:39:53;;;;;;;3.40;2.30;;;;;;;;;;4894286;29;20726;-83
2023/09/06 01:42:22;;;;;;;3.28;2.63;;;;;;;;;;4894000;29;20646;-83
2023/09/06 01:44:50;;;;;;;4.65;2.60;;;;;;;;;;4894494;29;20288;-82
2023/09/06 01:47:18;;;;;;;3.00;2.70;;;;;;;;;;4894074;29;20371;-82
2023/09/06 01:49:45;;;;;;;5.03;2.90;;;;;;;;;;4893496;29;20233;-82
2023/09/06 01:52:13;;;;;;;2.65;2.45;;;;;;;;;;4876975;29;20705;-81
2023/09/06 01:54:41;;;;;;;2.95;2.50;;;;;;;;;;4874813;29;20211;-83
2023/09/06 01:57:14;;;;;;;2.40;2.30;;;;;;;;;;4875627;29;20213;-81
2023/09/06 01:59:43;;;;;;;2.75;2.55;;;;;;;;;;4883341;29;20546;-81
2023/09/06 02:02:11;;;;;;;2.40;2.30;;;;;;;;;;4879095;29;20220;-81
2023/09/06 02:04:40;;;;;;;2.28;2.17;;;;;;;;;;4875971;29;20199;-83
2023/09/06 02:07:07;;;;;;;2.72;2.53;;;;;;;;;;4875294;29;20217;-80
2023/09/06 02:09:35;;;;;;;2.30;2.13;;;;;;;;;;4875302;29;20238;-81
2023/09/06 02:12:05;;;;;;;2.67;2.37;;;;;;;;;;4875946;29;20577;-83
2023/09/06 02:14:34;;;;;;;4.23;2.50;;;;;;;;;;4875690;29;20623;-83
2023/09/06 02:20:20;;;;;;;2.23;2.13;;;;;;;;;;4865005;29;20343;-82
2023/09/06 02:22:51;;;;;;;3.10;2.90;;;;;;;;;;4875389;29;20297;-81
2023/09/06 02:25:21;;;;;;;2.78;2.38;;;;;;;;;;4875530;29;20204;-81
2023/09/06 02:27:49;;;;;;;2.40;2.30;;;;;;;;;;4875201;29;20799;-82
2023/09/06 02:30:18;;;;;;;2.30;2.20;;;;;;;;;;4875466;29;20219;-83
2023/09/06 02:32:47;;;;;;;2.43;2.03;;;;;;;;;;4876446;29;20238;-82
2023/09/06 02:35:19;;;;;;;2.63;2.50;;;;;;;;;;4875377;29;20577;-81
2023/09/06 02:40:52;;;;;;;2.47;2.35;;;;;;;;;;4836604;29;20254;-82
2023/09/06 02:43:19;;;;;;;2.80;2.70;;;;;;;;;;4874535;29;20229;-82
2023/09/06 02:45:49;;;;;;;2.42;2.22;;;;;;;;;;4874494;29;20288;-83
2023/09/06 02:48:18;;;;;;;2.73;2.53;;;;;;;;;;4875604;29;20204;-83
2023/09/06 02:50:47;;;;;;;2.93;2.73;;;;;;;;;;4874078;29;20214;-82
2023/09/06 02:53:19;;;;;;;3.50;2.63;;;;;;;;;;4874465;29;20268;-83
2023/09/06 02:55:47;;;;;;;2.47;2.27;;;;;;;;;;4875423;29;20604;-81
2023/09/06 02:58:16;;;;;;;5.45;2.50;;;;;;;;;;4874568;29;20238;-81
2023/09/06 03:00:47;;;;;;;3.65;2.60;;;;;;;;;;4874362;29;20225;-81
2023/09/06 03:03:16;;;;;;;4.10;2.30;;;;;;;;;;4875320;29;20636;-82
2023/09/06 03:06:17;;;;;;;2.50;2.30;;;;;;;;;;4874647;29;20216;-82
2023/09/06 03:08:47;;;;;;;3.65;2.30;;;;;;;;;;4872242;29;20263;-82
2023/09/06 03:11:14;;;;;;;2.95;2.75;;;;;;;;;;4874719;29;20228;-82
2023/09/06 03:13:42;;;;;;;3.20;2.50;;;;;;;;;;4874121;29;20235;-82
2023/09/06 03:16:13;;;;;;;2.55;2.45;;;;;;;;;;4875466;29;20203;-81
2023/09/06 03:18:40;;;;;;;3.47;2.17;;;;;;;;;;4874739;29;20591;-82
2023/09/06 03:21:08;;;;;;;2.65;2.42;;;;;;;;;;4873785;29;20478;-82
2023/09/06 03:23:37;;;;;;;3.22;3.00;;;;;;;;;;4874680;29;20696;-82
2023/09/06 03:26:09;;;;;;;2.50;2.40;;;;;;;;;;4874547;29;20200;-82
2023/09/06 03:28:40;;;;;;;3.45;2.80;;;;;;;;;;4873239;29;20239;-82
2023/09/06 03:31:09;;;;;;;3.07;2.87;;;;;;;;;;4874560;29;20201;-82
2023/09/06 03:33:39;;;;;;;3.53;2.50;;;;;;;;;;4874694;29;20290;-82
2023/09/06 03:36:09;;;;;;;5.43;3.05;;;;;;;;;;4874351;29;20254;-82
2023/09/06 03:38:37;;;;;;;2.75;2.65;;;;;;;;;;4875062;29;20331;-82
2023/09/06 03:41:07;;;;;;;2.90;2.70;;;;;;;;;;4875201;29;20300;-83
2023/09/06 03:43:47;;;;;;;2.80;2.60;;;;;;;;;;4873923;29;20226;-83
2023/09/06 03:46:16;;;;;;;3.05;2.85;;;;;;;;;;4875227;29;20206;-82
2023/09/06 03:48:45;;;;;;;3.17;2.88;;;;;;;;;;4874203;29;20211;-82
2023/09/06 03:51:14;;;;;;;3.20;2.90;;;;;;;;;;4873965;29;20243;-82
2023/09/06 03:53:43;;;;;;;2.95;2.50;;;;;;;;;;4874251;29;20198;-82
2023/09/06 03:56:43;;;;;;;3.40;3.20;;;;;;;;;;4873882;29;20206;-82
2023/09/06 03:59:12;;;;;;;3.38;3.08;;;;;;;;;;4798593;29;20216;-83
2023/09/06 04:01:43;;;;;;;3.08;2.88;;;;;;;;;;4798506;29;20287;-82
2023/09/06 04:04:12;;;;;;;2.58;2.38;;;;;;;;;;4834860;29;20209;-82
2023/09/06 04:06:43;;;;;;;3.47;3.08;;;;;;;;;;4874048;29;20282;-82
2023/09/06 04:09:13;;;;;;;2.83;2.60;;;;;;;;;;4876433;29;20244;-80
2023/09/06 04:11:41;;;;;;;3.30;3.10;;;;;;;;;;4881749;29;20231;-81
2023/09/06 04:14:09;;;;;;;2.55;2.38;;;;;;;;;;4878781;29;20207;-82
2023/09/06 04:16:38;;;;;;;3.20;2.83;;;;;;;;;;4878044;29;20210;-81
2023/09/06 04:19:06;;;;;;;3.53;3.33;;;;;;;;;;4877353;29;20210;-81
2023/09/06 04:21:33;;;;;;;3.00;2.80;;;;;;;;;;4877410;29;20249;-82
2023/09/06 04:24:00;;;;;;;3.30;3.10;;;;;;;;;;4877033;29;20202;-81
2023/09/06 04:26:55;;;;;;;3.45;3.15;;;;;;;;;;4876880;29;20218;-82
2023/09/06 04:29:25;;;;;;;4.68;3.30;;;;;;;;;;4871118;29;20587;-82
2023/09/06 04:31:54;;;;;;;3.22;2.95;;;;;;;;;;4878629;29;20261;-82
2023/09/06 04:34:23;;;;;;;3.67;3.38;;;;;;;;;;4878495;29;20223;-81
2023/09/06 04:36:53;;;;;;;3.15;2.95;;;;;;;;;;4878600;29;20287;-83
2023/09/06 04:39:20;;;;;;;3.17;2.97;;;;;;;;;;4877355;29;20234;-82
2023/09/06 04:41:47;;;;;;;3.42;3.13;;;;;;;;;;4876686;29;20265;-83
2023/09/06 04:44:17;;;;;;;2.63;2.53;;;;;;;;;;4876760;29;20350;-82
2023/09/06 04:46:46;;;;;;;3.40;3.20;;;;;;;;;;4877611;29;20666;-81
2023/09/06 04:49:14;;;;;;;3.97;3.28;;;;;;;;;;4877145;29;20215;-82
2023/09/06 04:51:42;;;;;;;3.15;2.67;;;;;;;;;;4877559;29;20205;-82
2023/09/06 04:54:09;;;;;;;5.53;3.53;;;;;;;;;;4877486;29;20581;-81
2023/09/06 04:56:40;;;;;;;3.72;3.40;;;;;;;;;;4876904;29;20209;-82
2023/09/06 04:59:08;;;;;;;3.33;3.13;;;;;;;;;;4878016;29;20640;-82
2023/09/06 05:01:36;;;;;;;2.80;2.58;;;;;;;;;;4877051;29;20315;-82
2023/09/06 05:04:06;;;;;;;3.47;3.17;;;;;;;;;;4876838;29;20204;-83
2023/09/06 05:06:37;;;;;;;3.17;2.92;;;;;;;;;;4877049;29;20221;-82
2023/09/06 05:09:06;;;;;;;2.97;2.30;;;;;;;;;;4877556;29;20756;-82
2023/09/06 05:11:37;;;;;;;3.33;2.90;;;;;;;;;;4876664;29;20656;-82
2023/09/06 05:14:04;;;;;;;3.63;3.33;;;;;;;;;;4877527;29;20209;-82
2023/09/06 05:16:34;;;;;;;5.18;2.92;;;;;;;;;;4876663;29;20206;-83
2023/09/06 05:19:03;;;;;;;3.08;2.88;;;;;;;;;;4876585;29;20204;-82
2023/09/06 05:21:36;;;;;;;3.85;3.38;;;;;;;;;;4878892;29;20660;-83
2023/09/06 05:24:05;;;;;;;3.10;2.72;;;;;;;;;;4891306;29;20209;-82
2023/09/06 05:26:35;;;;;;;5.03;3.42;;;;;;;;;;4896100;29;20198;-82
2023/09/06 05:29:04;;;;;;;3.50;2.92;;;;;;;;;;4896048;29;20202;-82
2023/09/06 05:31:32;;;;;;;3.63;2.50;;;;;;;;;;4897516;29;20239;-81
2023/09/06 05:34:01;;;;;;;2.75;2.55;;;;;;;;;;4899568;29;20193;-81
2023/09/06 05:36:32;;;;;;;3.90;3.60;;;;;;;;;;4887793;29;20220;-80
2023/09/06 05:39:06;;;;;;;4.93;2.72;;;;;;;;;;4890378;29;20238;-81
2023/09/06 05:41:34;;;;;;;3.15;2.95;;;;;;;;;;4875544;29;20235;-82
2023/09/06 05:44:02;;;;;;;3.10;2.90;;;;;;;;;;4876421;29;20292;-81
2023/09/06 05:46:30;;;;;;;3.35;3.08;;;;;;;;;;4875521;29;20612;-82
2023/09/06 05:48:58;;;;;;;9.18;3.03;;;;;;;;;;4875695;29;20524;-83
2023/09/06 05:51:27;;;;;;;3.05;2.78;;;;;;;;;;4876224;29;20308;-82
2023/09/06 05:53:57;;;;;;;3.10;2.85;;;;;;;;;;4875731;29;20605;-83
2023/09/06 05:56:27;;;;;;;4.07;2.85;;;;;;;;;;4875955;29;20637;-82
2023/09/06 05:58:56;;;;;;;2.83;2.63;;;;;;;;;;4876814;29;20231;-83
2023/09/06 06:01:32;;;;;;;2.60;2.40;;;;;;;;;;4875458;29;20225;-82
2023/09/06 06:04:01;;;;;;;2.35;2.15;;;;;;;;;;4876476;29;20210;-82
2023/09/06 06:06:31;;;;;;;3.13;2.92;;;;;;;;;;4877122;29;20636;-82
2023/09/06 06:11:53;;;;;;;2.80;2.40;;;;;;;;;;4872257;29;20205;-82
2023/09/06 06:14:31;;;;;;;2.38;2.28;;;;;;;;;;4874996;29;20710;-83
2023/09/06 06:17:02;;;;;;;2.63;2.53;;;;;;;;;;4874736;29;20730;-82
2023/09/06 06:19:32;;;;;;;4.20;2.63;;;;;;;;;;4875277;29;20653;-82
2023/09/06 06:22:01;;;;;;;3.35;2.20;;;;;;;;;;4875406;29;20327;-82
2023/09/06 06:24:28;;;;;;;2.58;2.47;;;;;;;;;;4878106;29;20211;-81
2023/09/06 06:26:56;;;;;;;5.38;2.67;;;;;;;;;;4893254;29;20607;-81
2023/09/06 06:29:24;;;;;;;2.65;2.10;;;;;;;;;;4893356;29;20650;-81
2023/09/06 06:31:56;;;;;;;2.70;2.50;;;;;;;;;;4893140;29;20334;-83
2023/09/06 06:37:30;;;;;;;2.30;2.20;;;;;;;;;;4894160;29;20443;-82
2023/09/06 06:40:00;;;;;;;2.15;2.05;;;;;;;;;;4893686;29;20267;-82
2023/09/06 06:42:28;;;;;;;2.88;2.70;;;;;;;;;;4893458;29;20815;-82
2023/09/06 06:44:58;;;;;;;2.80;2.70;;;;;;;;;;4894266;29;20220;-83
2023/09/06 06:47:27;;;;;;;2.78;2.30;;;;;;;;;;4893363;29;20529;-82
2023/09/06 06:49:55;;;;;;;2.33;2.13;;;;;;;;;;4894325;29;20197;-82
2023/09/06 06:52:24;;;;;;;3.08;2.22;;;;;;;;;;4893968;29;20230;-81
2023/09/06 06:54:52;;;;;;;2.97;2.55;;;;;;;;;;4893053;29;20675;-82
2023/09/06 06:57:20;;;;;;;2.63;2.42;;;;;;;;;;4893463;29;20220;-82
2023/09/06 06:59:48;;;;;;;4.97;2.45;;;;;;;;;;4893122;29;20205;-82
2023/09/06 07:02:15;;;;;;;2.53;2.42;;;;;;;;;;4893334;29;20690;-83
2023/09/06 07:04:45;;;;;;;2.10;2.00;;;;;;;;;;4897760;29;20261;-82
2023/09/06 07:07:12;;;;;;;2.50;2.30;;;;;;;;;;4901994;29;20205;-82
2023/09/06 07:09:41;;;;;;;3.28;2.50;;;;;;;;;;4893253;29;20276;-83
2023/09/06 07:12:10;;;;;;;2.90;2.53;;;;;;;;;;4892759;29;20208;-82
2023/09/06 07:14:38;;;;;;;4.13;2.30;;;;;;;;;;4893760;29;20192;-83
2023/09/06 07:17:06;;;;;;;2.97;2.70;;;;;;;;;;4892296;29;20241;-81
2023/09/06 07:19:34;;;;;;;3.10;2.90;;;;;;;;;;4892953;29;20604;-82
2023/09/06 07:22:04;;;;;;;2.25;2.15;;;;;;;;;;4893078;29;20255;-83
2023/09/06 07:24:31;;;;;;;2.65;2.45;;;;;;;;;;4892697;29;20215;-83
2023/09/06 07:26:58;;;;;;;4.32;2.38;;;;;;;;;;4893134;29;20240;-82
2023/09/06 07:29:26;;;;;;;7.13;2.50;;;;;;;;;;4893505;29;20235;-82
2023/09/06 07:31:58;;;;;;;3.30;2.90;;;;;;;;;;4891765;29;20237;-82
2023/09/06 07:34:30;;;;;;;5.55;3.33;;;;;;;;;;4893422;29;20599;-82
2023/09/06 07:36:58;;;;;;;2.75;2.55;;;;;;;;;;4894243;29;20232;-81
2023/09/06 07:39:28;;;;;;;2.90;2.70;;;;;;;;;;4893511;29;20208;-83
2023/09/06 07:41:58;;;;;;;5.30;3.00;;;;;;;;;;4893722;29;20235;-81
2023/09/06 07:44:29;;;;;;;3.13;2.10;;;;;;;;;;4893879;29;20259;-82
2023/09/06 07:46:56;;;;;;;3.00;2.67;;;;;;;;;;4896900;29;20208;-84
2023/09/06 07:49:24;;;;;;;3.15;2.97;;;;;;;;;;4897452;29;20209;-84
2023/09/06 07:51:51;;;;;;;2.63;2.42;;;;;;;;;;4898806;29;20208;-84
2023/09/06 07:54:20;;;;;;;3.00;2.80;;;;;;;;;;4897736;29;20288;-85
2023/09/06 07:56:51;;;;;;;2.47;2.38;;;;;;;;;;4897391;29;20239;-84
2023/09/06 07:59:23;;;;;;;4.43;3.42;;;;;;;;;;4896843;29;20687;-83
2023/09/06 08:01:53;;;;;;;3.30;3.05;;;;;;;;;;4887698;29;20645;-83
2023/09/06 08:04:21;;;;;;;9.50;2.30;;;;;;;;;;4878614;29;20603;-84
2023/09/06 08:09:56;;;;;;;2.90;2.72;;;;;;;;;;4878240;29;20235;-83
2023/09/06 08:12:26;;;;;;;5.15;3.03;;;;;;;;;;4879152;29;20288;-82
2023/09/06 08:14:54;;;;;;;3.00;2.75;;;;;;;;;;4877988;29;20269;-84
2023/09/06 08:17:47;;;;;;;2.67;2.53;;;;;;;;;;4878527;29;20212;-84
2023/09/06 08:20:27;;;;;;;2.83;2.70;;;;;;;;;;4878771;29;20210;-82
2023/09/06 08:23:33;;;;;;;3.05;2.85;;;;;;;;;;4879145;29;20217;-81
2023/09/06 08:26:01;;;;;;;7.75;3.28;;;;;;;;;;4875706;29;20747;-83
2023/09/06 08:28:56;;;;;;;3.47;3.17;;;;;;;;;;4878801;29;20201;-82
2023/09/06 08:31:30;;;;;;;3.55;2.70;;;;;;;;;;4874551;29;20270;-83
2023/09/06 08:36:43;;;;;;;3.03;2.83;;;;;;;;;;4892932;29;20236;-84
2023/09/06 08:39:14;;;;;;;2.78;2.63;;;;;;;;;;4896416;29;20706;-84
2023/09/06 08:41:51;;;;;;;2.95;2.75;;;;;;;;;;4886349;29;20617;-84
2023/09/06 08:45:06;;;;;;;3.58;3.38;;;;;;;;;;4896314;29;20254;-83
2023/09/06 08:47:40;;;;;;;5.40;3.70;;;;;;;;;;4890957;29;20734;-83
2023/09/06 08:50:09;;;;;;;3.75;3.35;;;;;;;;;;4896400;29;20852;-82
2023/09/06 08:52:45;;;;;;;3.38;3.17;;;;;;;;;;4890735;29;20707;-85
2023/09/06 08:55:13;;;;;;;3.78;2.97;;;;;;;;;;4896134;29;20737;-82
2023/09/06 08:57:44;;;;;;;2.78;2.60;;;;;;;;;;4893535;29;20225;-83
2023/09/06 09:00:17;;;;;;;3.88;3.08;;;;;;;;;;4895266;29;20292;-83
2023/09/06 09:02:48;;;;;;;2.88;2.60;;;;;;;;;;4894272;29;20240;-83
2023/09/06 09:05:16;;;;;;;3.10;3.00;;;;;;;;;;4895006;29;20745;-85
2023/09/06 09:08:09;;;;;;;4.15;2.58;;;;;;;;;;4887410;29;20367;-84
2023/09/06 09:10:36;;;;;;;2.83;2.70;;;;;;;;;;4891128;29;20221;-84
2023/09/06 09:15:39;;;;;;;13.82;2.97;;;;;;;;;;5045708;23;20232;-92
2023/09/06 09:18:15;;;;;;;3.38;3.08;;;;;;;;;;4881344;29;20241;-92
2023/09/06 09:20:43;;;;;;;4.38;3.13;;;;;;;;;;4886017;29;20243;-92
2023/09/06 09:23:14;;;;;;;3.03;2.92;;;;;;;;;;4878164;29;20244;-92
2023/09/06 09:28:47;;;;;;;3.20;3.00;;;;;;;;;;4856748;29;20324;-90
2023/09/06 09:31:14;;;;;;;3.58;3.28;;;;;;;;;;4897567;29;20232;-90
2023/09/06 09:33:43;;;;;;;3.38;2.75;;;;;;;;;;4900497;29;20229;-88
2023/09/06 09:36:10;;;;;;;3.40;3.10;;;;;;;;;;4899523;29;20716;-87
2023/09/06 09:38:41;;;;;;;3.35;3.15;;;;;;;;;;4899139;29;20232;-90
2023/09/06 09:41:08;;;;;;;3.33;3.13;;;;;;;;;;4898149;29;20244;-90
2023/09/06 09:43:36;;;;;;;3.55;3.30;;;;;;;;;;4897529;29;20245;-90
2023/09/06 09:46:27;;;;;;;2.80;2.67;;;;;;;;;;4895893;29;20435;-92
2023/09/06 09:49:01;;;;;;;3.33;3.00;;;;;;;;;;4889598;29;20732;-93
2023/09/06 09:52:01;;;;;;;3.70;3.50;;;;;;;;;;4899309;29;20247;-92
2023/09/06 09:54:33;;;;;;;3.78;3.20;;;;;;;;;;4895771;29;20309;-87
2023/09/06 09:57:04;;;;;;;3.35;3.15;;;;;;;;;;4895335;29;20285;-86
2023/09/06 09:59:31;;;;;;;7.40;3.30;;;;;;;;;;4894866;29;20229;-88
2023/09/06 10:01:59;;;;;;;5.63;3.40;;;;;;;;;;4879257;29;20272;-86
2023/09/06 10:04:28;;;;;;;3.17;2.97;;;;;;;;;;4874941;29;20272;-86
2023/09/06 10:06:55;;;;;;;3.45;3.15;;;;;;;;;;4875981;29;20230;-87
2023/09/06 10:09:23;;;;;;;5.72;3.10;;;;;;;;;;4874669;29;20220;-85
2023/09/06 10:11:51;;;;;;;4.05;3.72;;;;;;;;;;4875986;29;20233;-88
2023/09/06 10:14:22;;;;;;;3.65;3.33;;;;;;;;;;4873948;29;20256;-87
2023/09/06 10:16:49;;;;;;;4.30;3.25;;;;;;;;;;4875641;29;20229;-87
2023/09/06 10:19:16;;;;;;;3.90;3.60;;;;;;;;;;4874030;29;20244;-85
2023/09/06 10:21:46;;;;;;;3.53;3.33;;;;;;;;;;4875314;29;20233;-85
2023/09/06 10:24:19;;;;;;;4.28;3.30;;;;;;;;;;4875172;29;20245;-85
2023/09/06 10:26:47;;;;;;;3.67;3.38;;;;;;;;;;4875824;29;20286;-85
2023/09/06 10:29:24;;;;;;;8.60;3.42;;;;;;;;;;4874501;29;20233;-85
2023/09/06 10:31:51;;;;;;;3.50;3.30;;;;;;;;;;4875253;29;20262;-86
2023/09/06 10:34:18;;;;;;;6.93;3.78;;;;;;;;;;4874968;29;20829;-85
2023/09/06 10:36:53;;;;;;;4.78;3.78;;;;;;;;;;4876520;29;20327;-86
2023/09/06 10:39:26;;;;;;;3.88;3.55;;;;;;;;;;4884351;29;20258;-85
2023/09/06 10:42:11;;;;;;;3.63;3.42;;;;;;;;;;4879693;29;20670;-85
2023/09/06 10:45:20;;;;;;;3.53;3.22;;;;;;;;;;4874719;29;20328;-84
2023/09/06 10:47:50;;;;;;;3.42;3.22;;;;;;;;;;4874954;29;20229;-84
2023/09/06 10:50:17;;;;;;;3.58;3.28;;;;;;;;;;4875315;29;20236;-85
2023/09/06 10:52:48;;;;;;;4.00;3.63;;;;;;;;;;4875180;29;20236;-85
2023/09/06 10:55:16;;;;;;;4.03;3.67;;;;;;;;;;4875422;29;20631;-84
2023/09/06 10:57:51;;;;;;;4.93;3.72;;;;;;;;;;4876992;29;20237;-84
2023/09/06 11:00:19;;;;;;;3.97;3.78;;;;;;;;;;4879201;29;20224;-85
2023/09/06 11:03:13;;;;;;;6.43;4.15;;;;;;;;;;4875822;29;20332;-85
2023/09/06 11:05:42;;;;;;;5.03;3.75;;;;;;;;;;4874637;29;20686;-85
2023/09/06 11:08:13;;;;;;;3.63;3.33;;;;;;;;;;4874879;29;20233;-86
2023/09/06 11:10:40;;;;;;;4.05;3.75;;;;;;;;;;4875116;29;20248;-87
2023/09/06 11:13:11;;;;;;;4.82;3.90;;;;;;;;;;4874453;29;20337;-85
2023/09/06 11:15:38;;;;;;;3.95;3.67;;;;;;;;;;4874125;29;20283;-86
2023/09/06 11:18:05;;;;;;;3.53;3.33;;;;;;;;;;4874436;29;20241;-86
2023/09/06 11:20:37;;;;;;;3.92;3.72;;;;;;;;;;4873639;29;20272;-86
2023/09/06 11:23:07;;;;;;;3.83;3.50;;;;;;;;;;4871746;29;20248;-85
2023/09/06 11:25:35;;;;;;;3.47;3.28;;;;;;;;;;4874437;29;20777;-86
2023/09/06 11:28:14;;;;;;;4.10;3.80;;;;;;;;;;4874567;29;20710;-85
2023/09/06 11:30:43;;;;;;;5.25;3.80;;;;;;;;;;4879051;29;20236;-87
2023/09/06 11:33:11;;;;;;;4.13;3.80;;;;;;;;;;4877456;29;20236;-85
2023/09/06 11:35:56;;;;;;;3.90;3.70;;;;;;;;;;4874620;29;20241;-86
2023/09/06 11:38:28;;;;;;;4.18;3.80;;;;;;;;;;4874542;29;20237;-85
2023/09/06 11:40:57;;;;;;;3.78;3.47;;;;;;;;;;4874727;29;20240;-85
2023/09/06 11:43:29;;;;;;;3.75;3.47;;;;;;;;;;4873743;29;20245;-86
2023/09/06 11:46:03;;;;;;;3.17;2.85;;;;;;;;;;4874297;29;20229;-86
2023/09/06 11:48:43;;;;;;;3.83;3.55;;;;;;;;;;4874621;29;20236;-85
2023/09/06 11:51:12;;;;;;;4.55;4.25;;;;;;;;;;4875775;29;20325;-85
2023/09/06 11:53:43;;;;;;;3.50;3.22;;;;;;;;;;4879106;29;20238;-87
2023/09/06 11:56:14;;;;;;;4.22;3.92;;;;;;;;;;4874957;29;20585;-86
2023/09/06 12:02:19;;;;;;;3.50;3.15;;;;;;;;;;4875059;29;20381;-85
2023/09/06 12:05:20;;;;;;;4.00;3.67;;;;;;;;;;4870618;29;20348;-86
2023/09/06 12:13:42;;;;;;;4.47;3.28;;;;;;;;;;4876908;29;20309;-85
2023/09/06 12:16:12;;;;;;;2.88;2.78;;;;;;;;;;4873413;29;20343;-85
2023/09/06 12:18:39;;;;;;;3.47;3.28;;;;;;;;;;4875033;29;20230;-87
2023/09/06 12:21:07;;;;;;;3.75;3.55;;;;;;;;;;4871866;29;20464;-86
2023/09/06 12:23:37;;;;;;;3.35;3.17;;;;;;;;;;4873516;29;20647;-88
2023/09/06 12:26:06;;;;;;;3.55;3.38;;;;;;;;;;4872160;29;20808;-87
2023/09/06 12:28:33;;;;;;;2.85;2.65;;;;;;;;;;4872982;29;20521;-87
2023/09/06 12:31:02;;;;;;;3.88;3.22;;;;;;;;;;4874352;29;20678;-87
2023/09/06 12:33:29;;;;;;;3.88;3.50;;;;;;;;;;4877592;29;20274;-85
2023/09/06 12:36:10;;;;;;;3.70;3.47;;;;;;;;;;4878547;29;20314;-86
2023/09/06 12:38:37;;;;;;;4.00;3.60;;;;;;;;;;4878253;29;20235;-85
2023/09/06 12:41:06;;;;;;;3.20;3.00;;;;;;;;;;4877590;29;20236;-85
2023/09/06 12:43:35;;;;;;;3.70;3.50;;;;;;;;;;4877042;29;20244;-86
2023/09/06 12:46:11;;;;;;;4.35;3.95;;;;;;;;;;4878995;29;20245;-86
2023/09/06 12:48:41;;;;;;;4.18;3.83;;;;;;;;;;4878093;29;20253;-87
2023/09/06 12:51:07;;;;;;;3.17;2.88;;;;;;;;;;4881415;29;20260;-85
2023/09/06 12:53:34;;;;;;;3.38;3.22;;;;;;;;;;4884245;29;20241;-85
2023/09/06 12:56:00;;;;;;;4.28;3.65;;;;;;;;;;4889635;29;20615;-84
2023/09/06 12:58:27;;;;;;;3.65;3.30;;;;;;;;;;4885671;29;20746;-86
2023/09/06 13:00:55;;;;;;;7.18;3.50;;;;;;;;;;4884545;29;20229;-85
2023/09/06 13:03:23;;;;;;;3.58;3.35;;;;;;;;;;4885348;29;20252;-87
2023/09/06 13:05:51;;;;;;;6.75;3.10;;;;;;;;;;4889971;29;20241;-86
2023/09/06 13:08:17;;;;;;;3.95;3.38;;;;;;;;;;4885762;29;20679;-87
2023/09/06 13:10:47;;;;;;;4.20;3.85;;;;;;;;;;4877304;29;20738;-87
2023/09/06 13:13:14;;;;;;;4.22;3.92;;;;;;;;;;4876566;29;20236;-87
2023/09/06 13:15:41;;;;;;;3.85;3.55;;;;;;;;;;4877012;29;20310;-86
2023/09/06 13:18:09;;;;;;;3.10;2.90;;;;;;;;;;4875526;29;20221;-84
2023/09/06 13:20:37;;;;;;;3.35;3.15;;;;;;;;;;4876386;29;21040;-86
2023/09/06 13:23:04;;;;;;;3.72;3.42;;;;;;;;;;4876554;29;20226;-86
2023/09/06 13:25:32;;;;;;;3.92;3.67;;;;;;;;;;4876553;29;20255;-88
2023/09/06 13:27:58;;;;;;;4.30;3.70;;;;;;;;;;4877251;29;20248;-87
2023/09/06 13:30:25;;;;;;;5.35;3.80;;;;;;;;;;4879087;29;20759;-86
2023/09/06 13:32:52;;;;;;;3.17;3.05;;;;;;;;;;4876859;29;20572;-87
2023/09/06 13:35:25;;;;;;;4.07;3.78;;;;;;;;;;4876282;29;20239;-88
2023/09/06 13:37:53;;;;;;;4.85;3.67;;;;;;;;;;4886983;29;20233;-85
2023/09/06 13:40:19;;;;;;;3.95;3.65;;;;;;;;;;4885185;29;20217;-85
2023/09/06 13:42:46;;;;;;;4.60;3.55;;;;;;;;;;4887925;29;20288;-86
2023/09/06 13:45:17;;;;;;;4.63;3.50;;;;;;;;;;4890677;29;20249;-86
2023/09/06 13:47:50;;;;;;;3.83;3.55;;;;;;;;;;4893716;29;20202;-86
2023/09/06 13:50:16;;;;;;;3.38;3.17;;;;;;;;;;4885169;29;20216;-85
2023/09/06 13:52:45;;;;;;;4.18;3.88;;;;;;;;;;4880287;29;20198;-84
2023/09/06 13:55:14;;;;;;;3.90;3.50;;;;;;;;;;4877616;29;20362;-84
2023/09/06 13:57:41;;;;;;;3.05;2.92;;;;;;;;;;4876390;29;20205;-84
2023/09/06 14:00:11;;;;;;;3.58;3.38;;;;;;;;;;4876647;29;20324;-84
2023/09/06 14:02:41;;;;;;;9.85;3.45;;;;;;;;;;4876697;29;20368;-86
2023/09/06 14:05:09;;;;;;;3.65;3.33;;;;;;;;;;4875942;29;20217;-84
2023/09/06 14:07:36;;;;;;;3.80;3.50;;;;;;;;;;4876486;29;20639;-84
2023/09/06 14:10:04;;;;;;;3.63;3.40;;;;;;;;;;4876704;29;20224;-84
2023/09/06 14:12:32;;;;;;;3.72;3.53;;;;;;;;;;4871855;29;20238;-86
2023/09/06 14:14:59;;;;;;;8.18;4.07;;;;;;;;;;4860765;29;20245;-86
2023/09/06 14:17:26;;;;;;;8.32;3.75;;;;;;;;;;4855798;29;20242;-86
2023/09/06 14:19:52;;;;;;;4.43;4.03;;;;;;;;;;4855984;29;20321;-86
2023/09/06 14:25:10;;;;;;;3.67;3.40;;;;;;;;;;4857081;29;20245;-84
2023/09/06 14:27:38;;;;;;;4.07;3.50;;;;;;;;;;4857089;29;20234;-86
2023/09/06 14:30:06;;;;;;;6.82;3.85;;;;;;;;;;4857250;29;20226;-86
2023/09/06 14:32:34;;;;;;;3.67;3.40;;;;;;;;;;4856519;29;20321;-86
2023/09/06 14:35:01;;;;;;;3.65;3.45;;;;;;;;;;4856323;29;20234;-85
2023/09/06 14:37:30;;;;;;;6.38;3.67;;;;;;;;;;4856853;29;20234;-86
2023/09/06 14:40:00;;;;;;;3.85;3.55;;;;;;;;;;4869169;29;20225;-83
2023/09/06 14:42:32;;;;;;;4.05;3.85;;;;;;;;;;4878435;29;20790;-86
2023/09/06 14:45:00;;;;;;;4.35;4.05;;;;;;;;;;4877468;29;20252;-86
2023/09/06 14:47:27;;;;;;;3.90;3.70;;;;;;;;;;4876640;29;20259;-86
2023/09/06 14:49:54;;;;;;;4.32;3.92;;;;;;;;;;4877489;29;20235;-86
2023/09/06 14:52:21;;;;;;;5.68;4.07;;;;;;;;;;4876864;29;20290;-85
2023/09/06 14:54:47;;;;;;;3.85;3.55;;;;;;;;;;4876314;29;20741;-87
2023/09/06 14:57:15;;;;;;;4.20;3.90;;;;;;;;;;4860819;29;20242;-85
2023/09/06 14:59:45;;;;;;;6.00;3.88;;;;;;;;;;4858871;29;20367;-86
2023/09/06 15:02:13;;;;;;;6.32;3.58;;;;;;;;;;4856799;29;20237;-86
2023/09/06 15:04:40;;;;;;;4.28;3.72;;;;;;;;;;4858445;29;20310;-85
2023/09/06 15:07:10;;;;;;;4.07;3.63;;;;;;;;;;4857181;29;20234;-84
2023/09/06 15:15:33;;;;;;;4.22;3.80;;;;;;;;;;4854913;29;20238;-86
2023/09/06 15:18:02;;;;;;;3.25;3.15;;;;;;;;;;4855224;29;20857;-83
2023/09/06 15:20:29;;;;;;;6.88;4.05;;;;;;;;;;4856255;29;20572;-83
2023/09/06 15:22:59;;;;;;;5.80;3.88;;;;;;;;;;4855460;29;20230;-83
2023/09/06 15:25:25;;;;;;;3.72;3.42;;;;;;;;;;4855102;29;20612;-84
2023/09/06 15:27:53;;;;;;;4.45;4.13;;;;;;;;;;4855640;29;20226;-83
2023/09/06 15:30:19;;;;;;;4.20;3.90;;;;;;;;;;4856574;29;20230;-84
2023/09/06 15:32:46;;;;;;;4.60;3.85;;;;;;;;;;4856425;29;20246;-85
2023/09/06 15:35:19;;;;;;;9.75;4.57;;;;;;;;;;4855573;29;20242;-84
2023/09/06 15:38:15;;;;;;;18.05;5.15;;;;;;;;;;4855397;29;20242;-86
2023/09/06 15:41:17;;;;;;;8.43;4.20;;;;;;;;;;4855266;29;20305;-86
2023/09/06 15:44:16;;;;;;;4.25;3.85;;;;;;;;;;4855060;29;20263;-86
2023/09/06 15:46:57;;;;;;;4.07;3.67;;;;;;;;;;4824165;29;20230;-84
2023/09/06 15:52:27;;;;;;;3.85;3.65;;;;;;;;;;4840627;29;20244;-86